Williston, ND

6:56 AM CST on December 07, 2016 (GMT -0600)
Sloulin International | | Change Station
Active Advisory: Wind Chill Advisory Active Notice: Local Storm Report

Elev 1906 ft 48.17 °N, 103.64 °W | Updated 4 minutes ago

Overcast
Overcast
0 °F
Feels Like -22 °F
N
20
Wind Variable Wind from WNW
Gusts 26 mph

Today
High -- | Low -- °F
--% Chance of Precip.
Yesterday
High -- | Low -- °F
Precip. -- in
Pressure 30.49 in
Visibility 9.0 miles
Clouds Overcast 5000 ft
Windchill -22 °F
Dew Point -8 °F
Humidity 69%
Rainfall 0.00 in
Snow Depth Not available.
8:31 AM 5:00 PM
First Quarter, 52% visible
METAR KISN 071252Z AUTO 30017G23KT 9SM OVC050 M18/M22 A3032 RMK AO2 SLP324 T11781222
Pressure 30.49 in
Visibility 9.0 miles
Clouds Overcast 5000 ft
Windchill -22 °F
Dew Point -8 °F
Humidity 69%
Rainfall 0.00 in
Snow Depth Not available.
8:31 AM 5:00 PM
First Quarter, 52% visible
METAR KISN 071252Z AUTO 30017G23KT 9SM OVC050 M18/M22 A3032 RMK AO2 SLP324 T11781222

10-Day Weather Forecast

Almanac

Astronomy

Dec. 07, 2016 Rise Set
Actual Time
Civil Twilight
Nautical Twilight
Astronomical Twilight
Moon
Length of Visible Light
Length of Day
Tomorrow will be .
, % of the Moon is Illuminated

Today's Extremes

State Highs State Lows

Community

WunderPhotos

Upload Photos

1,956,112 photos uploaded!

WunderBlog® & News

Nearby

Air Quality

  Air Quality AQ Index Pollutant
Not available.

Snow Depth

Station Depth Elevation

Earthquake Activity

City Distance Mag. Time & Date
Minimum magnitude displayed is 2.5.

Coastal Water Temperatures

Place Temperature

Stations

Nearby Weather Stations

Station Location Temp. Windchill Dew Point Humidity Wind Precip. Elev Updated Type
                   

Watches & Warnings

Wind Chill Advisory
Issued: 5:19 AM MST Dec. 7, 2016 – National Weather Service

... Wind Chill Advisory remains in effect until noon CST /11 am
MST/ today...

* wind chills... to 25 below zero through Wednesday morning.
Frostbite to exposed skin is possible within 30 minutes.

* Other impacts... patchy blowing snow and reduced visibility are
possible.

Precautionary/preparedness actions...

A Wind Chill Advisory means that very cold air and strong winds
will combine to generate low wind chills. This will result in
frost bite and lead to hypothermia if precautions are not taken.
If you must venture outdoors... make sure you wear a hat and
gloves.


Aj